KFCS

Details ICAO KFCS (FCS)
Name BUTTS AAF
Region United States
Timezone America/Denver (UTC-6.0)
Plans Departing 2
Arriving 7
Stats Elevation 5,838 ft / 1,779 m (AMSL)
Location 38.678395° -104.756579°
Runways 1
Magnetic Variation 7.961° E
Sunrise 2018-05-21 11:43:40 UTC / 2018-05-21 05:43:40 Local
Sunset 2018-05-22 02:10:28 UTC / 2018-05-21 20:10:28 Local
Advertisement - Login to hide

Runways

ID Width Length Bearing (true) Bearing (mag) Surface Threshold Offset Overrun Length
13 75 ft / 23 m 4,573 ft / 1,394 m 137.30° 129.34° Asphalt 0 ft / 0 m 500 ft / 152 m
31 75 ft / 23 m 4,573 ft / 1,394 m 317.31° 309.35° Asphalt 0 ft / 0 m 0 ft / 0 m

Map

Weather


0- 5 10 15 20 25 30 35+ Temperature / ° C

Clouds and Precipitation
Forecast for 2018-05-22 06:00 UTC. Updated an hour ago

Ground ~20,000 ft ~40,000 ft Winds

METAR

KFCS 220558Z AUTO 34006KT 10SM CLR 11/03 A3000 RMK AO2 SLP112 60000 T01140029 10233 20114 58003 $

TAF

Not found

Frequencies

Tower 125.50 MHz TWR
Approach 124.00 MHz SPRINGS APP/DEP
Warning: Do not use this data for real-world aviation or navigation. No guarantee of current accuracy is given.